| time (UTC) | temp C | wind direction | speed KPH | gust KPH | rain 1hr cm | rain 24hr cm | rain mn cm | humidity % | barometer mb |
| 20260906051521 | 15 | 300 | 8.0 | 17.7 | 0.00 | 0.53 | 0.00 | 83 | 1017.7 |
| 20260906050521 | 15 | 282 | 9.7 | 16.1 | 0.00 | 0.53 | 0.00 | 87 | 1017.5 |
| 20260906045541 | 15 | 276 | 4.8 | 9.7 | 0.00 | 0.53 | 0.00 | 89 | 1017.2 |
| 20260906044521 | 14 | 292 | 6.4 | 12.9 | 0.00 | 0.53 | 0.00 | 91 | 1017.4 |
| 20260906043521 | 14 | 299 | 8.0 | 17.7 | 0.00 | 0.53 | 0.00 | 91 | 1017.5 |
| 20260906042521 | 15 | 320 | 8.0 | 14.5 | 0.00 | 0.53 | 0.00 | 90 | 1017.3 |
| 20260906041522 | 15 | 299 | 6.4 | 16.1 | 0.00 | 0.53 | 0.00 | 89 | 1016.9 |
| 20260906040542 | 14 | 239 | 4.8 | 11.3 | 0.00 | 0.53 | 0.00 | 90 | 1016.6 |
| 20260906035521 | 13 | 240 | 4.8 | 9.7 | 0.00 | 0.53 | 0.00 | 90 | 1016.4 |
| 20260906034521 | 13 | 177 | 3.2 | 6.4 | 0.00 | 0.53 | 0.00 | 90 | 1016.2 |
| 20260906033521 | 14 | 173 | 4.8 | 6.4 | 0.00 | 0.53 | 0.00 | 90 | 1016.3 |
| 20260906032521 | 14 | 187 | 3.2 | 8.0 | 0.00 | 0.53 | 0.00 | 89 | 1016.1 |
| 20260906031543 | 14 | 205 | 1.6 | 4.8 | 0.00 | 0.53 | 0.00 | 89 | 1016.0 |
| 20260906030522 | 14 | 256 | 3.2 | 6.4 | 0.00 | 0.53 | 0.00 | 89 | 1016.1 |
| 20260906025522 | 14 | 301 | 1.6 | 4.8 | 0.00 | 0.53 | 0.00 | 89 | 1016.1 |
| 20260906024524 | 14 | 294 | 3.2 | 4.8 | 0.00 | 0.53 | 0.00 | 89 | 1016.0 |
| 20260906023521 | 14 | 288 | 1.6 | 4.8 | 0.00 | 0.53 | 0.00 | 90 | 1015.9 |
| 20260906022522 | 15 | 278 | 3.2 | 8.0 | 0.00 | 0.53 | 0.00 | 90 | 1015.8 |
| 20260906021521 | 15 | 278 | 4.8 | 8.0 | 0.00 | 0.53 | 0.00 | 89 | 1015.8 |
| 20260906020521 | 15 | 227 | 4.8 | 11.3 | 0.00 | 0.53 | 0.00 | 90 | 1015.9 |
| 20260906015522 | 15 | 268 | 4.8 | 8.0 | 0.00 | 0.53 | 0.00 | 90 | 1015.9 |
| 20260906014521 | 15 | 273 | 8.0 | 11.3 | 0.00 | 0.53 | 0.00 | 91 | 1015.9 |
| 20260906013523 | 15 | 272 | 6.4 | 11.3 | 0.00 | 0.53 | 0.00 | 92 | 1016.0 |
| 20260906012521 | 15 | 276 | 4.8 | 8.0 | 0.00 | 0.53 | 0.00 | 92 | 1015.9 |
| 20260906011523 | 15 | 270 | 4.8 | 6.4 | 0.00 | 0.53 | 0.00 | 92 | 1015.9 |
| 20260906010521 | 15 | 274 | 4.8 | 6.4 | 0.00 | 0.53 | 0.00 | 91 | 1016.0 |
| 20260906005521 | 15 | 264 | 3.2 | 8.0 | 0.00 | 0.53 | 0.00 | 91 | 1016.0 |
| 20260906004521 | 15 | 237 | 4.8 | 9.7 | 0.00 | 0.53 | 0.00 | 90 | 1016.0 |
| 20260906003521 | 15 | 242 | 4.8 | 8.0 | 0.00 | 0.53 | 0.00 | 90 | 1016.2 |
| 20260906002522 | 15 | 266 | 6.4 | 11.3 | 0.00 | 0.53 | 0.00 | 92 | 1016.2 |
| 20260906001522 | 15 | 294 | 4.8 | 9.7 | 0.00 | 0.53 | 0.00 | 92 | 1016.3 |
| 20260906000523 | 15 | 274 | 3.2 | 6.4 | 0.00 | 0.53 | 0.00 | 92 | 1016.3 |
| 20260905235521 | 15 | 282 | 3.2 | 6.4 | 0.00 | 0.53 | 0.00 | 91 | 1016.3 |
| 20260905234521 | 16 | 261 | 1.6 | 6.4 | 0.00 | 0.53 | 0.00 | 89 | 1016.3 |
| 20260905233522 | 16 | 195 | 3.2 | 6.4 | 0.00 | 0.53 | 0.00 | 90 | 1016.3 |
| 20260905232522 | 16 | 235 | 3.2 | 9.7 | 0.00 | 0.53 | 0.00 | 90 | 1016.5 |
| 20260905231522 | 16 | 213 | 3.2 | 8.0 | 0.00 | 0.53 | 0.00 | 89 | 1016.6 |
| 20260905230522 | 16 | 229 | 3.2 | 8.0 | 0.00 | 0.53 | 0.00 | 88 | 1016.6 |
| 20260905225522 | 16 | 257 | 3.2 | 9.7 | 0.00 | 0.53 | 0.00 | 87 | 1016.5 |
| 20260905224523 | 16 | 254 | 8.0 | 14.5 | 0.00 | 0.53 | 0.00 | 88 | 1016.5 |
| 20260905223542 | 16 | 268 | 8.0 | 11.3 | 0.00 | 0.53 | 0.00 | 89 | 1016.5 |
| 20260905222522 | 16 | 265 | 8.0 | 16.1 | 0.00 | 0.53 | 0.00 | 89 | 1016.6 |
| 20260905221522 | 16 | 256 | 9.7 | 17.7 | 0.00 | 0.53 | 0.00 | 89 | 1016.4 |
| 20260905220521 | 16 | 294 | 9.7 | 17.7 | 0.00 | 0.53 | 0.00 | 90 | 1016.4 |
| 20260905215521 | 16 | 279 | 6.4 | 9.7 | 0.00 | 0.53 | 0.00 | 90 | 1016.2 |
| 20260905214521 | 16 | 285 | 6.4 | 12.9 | 0.00 | 0.53 | 0.00 | 90 | 1016.2 |
| 20260905213521 | 16 | 276 | 8.0 | 11.3 | 0.00 | 0.53 | 0.00 | 90 | 1016.2 |
| 20260905212522 | 16 | 273 | 8.0 | 12.9 | 0.00 | 0.53 | 0.00 | 91 | 1016.0 |
| 20260905211522 | 16 | 276 | 8.0 | 11.3 | 0.00 | 0.53 | 0.00 | 91 | 1015.9 |
| 20260905210522 | 16 | 269 | 8.0 | 12.9 | 0.00 | 0.53 | 0.00 | 91 | 1015.9 |
| 20260905205521 | 16 | 293 | 8.0 | 11.3 | 0.00 | 0.53 | 0.53 | 93 | 1015.7 |
| 20260905204541 | 15 | 279 | 8.0 | 12.9 | 0.00 | 0.53 | 0.53 | 93 | 1015.7 |
| 20260905203522 | 15 | 283 | 6.4 | 9.7 | 0.00 | 0.53 | 0.53 | 93 | 1015.7 |
| 20260905202522 | 16 | 274 | 4.8 | 6.4 | 0.00 | 0.53 | 0.53 | 93 | 1015.6 |
| 20260905201542 | 16 | 279 | 4.8 | 6.4 | 0.00 | 0.53 | 0.53 | 93 | 1015.5 |
| 20260905200522 | 16 | 270 | 6.4 | 8.0 | 0.00 | 0.53 | 0.53 | 92 | 1015.4 |
| 20260905195521 | 16 | 276 | 3.2 | 6.4 | 0.00 | 0.53 | 0.53 | 92 | 1015.5 |
| 20260905194540 | 16 | 277 | 6.4 | 9.7 | 0.00 | 0.53 | 0.53 | 93 | 1015.3 |
| 20260905193522 | 16 | 305 | 4.8 | 9.7 | 0.00 | 0.53 | 0.53 | 92 | 1015.4 |
| 20260905192522 | 16 | 293 | 6.4 | 11.3 | 0.00 | 0.53 | 0.53 | 92 | 1015.5 |
| 20260905191520 | 16 | 315 | 6.4 | 12.9 | 0.00 | 0.53 | 0.53 | 92 | 1015.1 |
| 20260905190521 | 16 | 306 | 4.8 | 12.9 | 0.00 | 0.53 | 0.53 | 92 | 1015.2 |
| 20260905185521 | 16 | 285 | 8.0 | 14.5 | 0.00 | 0.53 | 0.53 | 92 | 1015.4 |
| 20260905184521 | 16 | 295 | 6.4 | 9.7 | 0.00 | 0.53 | 0.53 | 93 | 1015.4 |
| 20260905183521 | 16 | 287 | 8.0 | 11.3 | 0.00 | 0.53 | 0.53 | 94 | 1015.2 |
| 20260905182522 | 16 | 291 | 4.8 | 9.7 | 0.00 | 0.53 | 0.53 | 95 | 1015.2 |
| 20260905181520 | 16 | 304 | 8.0 | 14.5 | 0.03 | 0.53 | 0.53 | 96 | 1015.1 |
| 20260905180521 | 16 | 320 | 6.4 | 12.9 | 0.13 | 0.53 | 0.53 | 96 | 1015.0 |
| 20260905175522 | 16 | 326 | 9.7 | 16.1 | 0.53 | 0.53 | 0.53 | 96 | 1014.8 |
| 20260905174522 | 16 | 340 | 8.0 | 14.5 | 0.53 | 0.53 | 0.53 | 95 | 1014.8 |
| 20260905173521 | 16 | 326 | 8.0 | 20.9 | 0.53 | 0.53 | 0.53 | 95 | 1014.6 |
| 20260905172521 | 16 | 336 | 11.3 | 20.9 | 0.53 | 0.53 | 0.53 | 94 | 1014.4 |
| 20260905171541 | 17 | 314 | 14.5 | 25.7 | 0.51 | 0.51 | 0.51 | 93 | 1013.9 |
| 20260905170522 | 18 | 306 | 22.5 | 43.5 | 0.41 | 0.41 | 0.41 | 85 | 1014.0 |
| 20260905165521 | 18 | 325 | 12.9 | 33.8 | 0.00 | 0.00 | 0.00 | 77 | 1014.7 |
| 20260905164521 | 20 | 324 | 17.7 | 30.6 | 0.00 | 0.00 | 0.00 | 68 | 1014.5 |
| 20260905163522 | 21 | 321 | 9.7 | 19.3 | 0.00 | 0.00 | 0.00 | 59 | 1013.8 |
| 20260905162521 | 21 | 342 | 9.7 | 22.5 | 0.00 | 0.00 | 0.00 | 57 | 1013.5 |
| 20260905161521 | 21 | 355 | 12.9 | 24.1 | 0.00 | 0.00 | 0.00 | 57 | 1013.2 |
| 20260905160541 | 21 | 340 | 12.9 | 29.0 | 0.00 | 0.00 | 0.00 | 56 | 1013.3 |
| 20260905155521 | 21 | 333 | 16.1 | 30.6 | 0.00 | 0.00 | 0.00 | 55 | 1013.1 |
| 20260905154521 | 21 | 340 | 17.7 | 38.6 | 0.00 | 0.00 | 0.00 | 53 | 1013.1 |
| 20260905153541 | 22 | 329 | 16.1 | 30.6 | 0.00 | 0.00 | 0.00 | 53 | 1013.1 |
| 20260905152520 | 22 | 320 | 20.9 | 41.8 | 0.00 | 0.00 | 0.00 | 52 | 1013.0 |
| 20260905151521 | 22 | 333 | 14.5 | 32.2 | 0.00 | 0.00 | 0.00 | 53 | 1012.8 |
| 20260905150521 | 22 | 327 | 16.1 | 32.2 | 0.00 | 0.00 | 0.00 | 52 | 1012.7 |
| 20260905145541 | 23 | 324 | 16.1 | 38.6 | 0.00 | 0.00 | 0.00 | 53 | 1012.5 |
| 20260905144521 | 23 | 332 | 19.3 | 38.6 | 0.00 | 0.00 | 0.00 | 53 | 1012.2 |
| 20260905143522 | 23 | 329 | 17.7 | 32.2 | 0.00 | 0.00 | 0.00 | 56 | 1012.0 |
| 20260905142522 | 24 | 329 | 17.7 | 41.8 | 0.00 | 0.00 | 0.00 | 54 | 1012.0 |
| 20260905141542 | 25 | 326 | 19.3 | 35.4 | 0.00 | 0.00 | 0.00 | 49 | 1012.1 |
| 20260905140521 | 27 | 320 | 19.3 | 37.0 | 0.00 | 0.00 | 0.00 | 47 | 1011.6 |
| 20260905135521 | 28 | 328 | 17.7 | 35.4 | 0.00 | 0.00 | 0.00 | 46 | 1011.2 |
| 20260905134521 | 30 | 332 | 19.3 | 33.8 | 0.00 | 0.00 | 0.00 | 43 | 1010.9 |
| 20260905133522 | 31 | 293 | 8.0 | 14.5 | 0.00 | 0.00 | 0.00 | 39 | 1010.5 |
| 20260905132522 | 32 | 277 | 11.3 | 16.1 | 0.00 | 0.00 | 0.00 | 37 | 1010.4 |
| 20260905131524 | 32 | 261 | 11.3 | 17.7 | 0.00 | 0.00 | 0.00 | 36 | 1010.2 |
| 20260905130542 | 32 | 274 | 9.7 | 14.5 | 0.00 | 0.00 | 0.00 | 37 | 1010.4 |
| 20260905125520 | 31 | 259 | 8.0 | 11.3 | 0.00 | 0.00 | 0.00 | 37 | 1010.4 |
| 20260905124521 | 31 | 245 | 9.7 | 17.7 | 0.00 | 0.00 | 0.00 | 36 | 1010.6 |
| 20260905123521 | 32 | 245 | 12.9 | 24.1 | 0.00 | 0.00 | 0.00 | 36 | 1010.6 |
| 20260905122520 | 32 | 225 | 14.5 | 20.9 | 0.00 | 0.00 | 0.00 | 35 | 1010.6 |
| 20260905121520 | 32 | 223 | 14.5 | 22.5 | 0.00 | 0.00 | 0.00 | 36 | 1010.7 |
| 20260905120521 | 32 | 214 | 11.3 | 19.3 | 0.00 | 0.00 | 0.00 | 36 | 1010.9 |
| 20260905115521 | 32 | 221 | 11.3 | 17.7 | 0.00 | 0.00 | 0.00 | 37 | 1010.9 |
| 20260905114520 | 31 | 212 | 6.4 | 14.5 | 0.00 | 0.00 | 0.00 | 38 | 1011.1 |
| 20260905113520 | 31 | 214 | 8.0 | 14.5 | 0.00 | 0.00 | 0.00 | 40 | 1011.1 |
| 20260905112521 | 30 | 198 | 6.4 | 9.7 | 0.00 | 0.00 | 0.00 | 40 | 1011.1 |
| 20260905111521 | 30 | 215 | 9.7 | 17.7 | 0.00 | 0.00 | 0.00 | 39 | 1011.3 |
| 20260905110522 | 30 | 211 | 9.7 | 20.9 | 0.00 | 0.00 | 0.00 | 41 | 1011.1 |
| 20260905105540 | 30 | 208 | 14.5 | 20.9 | 0.00 | 0.00 | 0.00 | 40 | 1011.1 |
| 20260905104521 | 30 | 190 | 9.7 | 20.9 | 0.00 | 0.00 | 0.00 | 40 | 1011.1 |
| 20260905103541 | 30 | 217 | 12.9 | 19.3 | 0.00 | 0.00 | 0.00 | 40 | 1011.2 |
| 20260905102521 | 30 | 229 | 12.9 | 22.5 | 0.00 | 0.00 | 0.00 | 41 | 1011.4 |
| 20260905101521 | 30 | 220 | 14.5 | 25.7 | 0.00 | 0.00 | 0.00 | 40 | 1011.5 |
| 20260905100522 | 30 | 200 | 19.3 | 30.6 | 0.00 | 0.00 | 0.00 | 40 | 1011.5 |
| 20260905095522 | 30 | 214 | 14.5 | 22.5 | 0.00 | 0.00 | 0.00 | 40 | 1011.5 |
| 20260905094522 | 31 | 232 | 12.9 | 24.1 | 0.00 | 0.00 | 0.00 | 39 | 1011.7 |
| 20260905093522 | 30 | 219 | 14.5 | 27.4 | 0.00 | 0.00 | 0.00 | 40 | 1011.5 |
| 20260905092522 | 30 | 198 | 14.5 | 20.9 | 0.00 | 0.00 | 0.00 | 41 | 1011.5 |
| 20260905085521 | 29 | 202 | 16.1 | 25.7 | 0.00 | 0.00 | 0.00 | 43 | 1012.0 |
| 20260905084522 | 28 | 202 | 16.1 | 25.7 | 0.00 | 0.00 | 0.00 | 43 | 1012.0 |
| 20260905083522 | 28 | 198 | 17.7 | 30.6 | 0.00 | 0.00 | 0.00 | 44 | 1012.0 |
| 20260905082601 | 28 | 204 | 16.1 | 22.5 | 0.00 | 0.00 | 0.00 | 45 | 1012.1 |
| 20260905081521 | 27 | 200 | 14.5 | 22.5 | 0.00 | 0.00 | 0.00 | 46 | 1012.3 |
| 20260905080542 | 27 | 196 | 12.9 | 20.9 | 0.00 | 0.00 | 0.00 | 47 | 1012.4 |
| 20260905075540 | 27 | 206 | 16.1 | 24.1 | 0.00 | 0.00 | 0.00 | 48 | 1012.6 |
| 20260905074521 | 26 | 199 | 17.7 | 25.7 | 0.00 | 0.00 | 0.00 | 47 | 1012.6 |
| 20260905073541 | 26 | 204 | 17.7 | 25.7 | 0.00 | 0.00 | 0.00 | 48 | 1012.6 |
| 20260905072521 | 26 | 188 | 16.1 | 27.4 | 0.00 | 0.00 | 0.00 | 49 | 1012.7 |
| 20260905071602 | 26 | 204 | 14.5 | 24.1 | 0.00 | 0.00 | 0.00 | 50 | 1012.8 |
| 20260905070520 | 25 | 204 | 14.5 | 25.7 | 0.00 | 0.00 | 0.00 | 51 | 1012.7 |
| 20260905065521 | 25 | 188 | 14.5 | 22.5 | 0.00 | 0.00 | 0.00 | 52 | 1012.9 |
| 20260905064521 | 24 | 199 | 14.5 | 22.5 | 0.00 | 0.00 | 0.00 | 54 | 1013.0 |
| 20260905063542 | 23 | 197 | 16.1 | 22.5 | 0.00 | 0.00 | 0.00 | 55 | 1012.8 |
| 20260905062522 | 23 | 199 | 14.5 | 22.5 | 0.00 | 0.00 | 0.00 | 57 | 1012.8 |
| 20260905061521 | 22 | 210 | 14.5 | 20.9 | 0.00 | 0.00 | 0.00 | 58 | 1012.9 |
| 20260905060521 | 22 | 197 | 12.9 | 19.3 | 0.00 | 0.00 | 0.00 | 58 | 1012.9 |
| 20260905055522 | 22 | 201 | 8.0 | 16.1 | 0.00 | 0.00 | 0.00 | 59 | 1012.8 |
| 20260905054521 | 21 | 202 | 4.8 | 11.3 | 0.00 | 0.00 | 0.00 | 60 | 1012.9 |
| 20260905053522 | 21 | 188 | 6.4 | 9.7 | 0.00 | 0.00 | 0.00 | 61 | 1012.9 |
| 20260905052522 | 21 | 166 | 4.8 | 8.0 | 0.00 | 0.00 | 0.00 | 62 | 1012.9 |